Time;durP1;ratioP1;P1;durP2;ratioP2;P2;SDS_P1;SDS_P2;PMS_P1;PMS_P2;Temp;Humidity;BMP_temperature;BMP_pressure;BME280_temperature;BME280_humidity;BME280_pressure;Samples;Min_cycle;Max_cycle;Signal;HPM_P1;HPM_P2
2021/11/17 02:25:44;;;;;;;26.83;13.88;;;;;;;;;;4918250;29;20048;-51
2021/11/17 02:28:10;;;;;;;28.25;13.57;;;;;;;;;;4918554;29;20036;-53
2021/11/17 02:30:36;;;;;;;27.85;14.05;;;;;;;;;;4918915;29;20080;-57
2021/11/17 02:33:09;;;;;;;27.10;13.70;;;;;;;;;;4922030;29;20444;-54
2021/11/17 02:35:44;;;;;;;26.70;14.88;;;;;;;;;;4937728;29;20163;-56
2021/11/17 02:38:28;;;;;;;29.08;14.02;;;;;;;;;;4937785;29;20035;-56
2021/11/17 02:40:57;;;;;;;24.90;13.77;;;;;;;;;;4937618;29;20028;-56
2021/11/17 02:43:26;;;;;;;26.60;14.38;;;;;;;;;;4937248;29;20059;-53
2021/11/17 02:46:05;;;;;;;26.35;14.15;;;;;;;;;;4937485;29;20048;-55
2021/11/17 02:48:34;;;;;;;33.13;14.85;;;;;;;;;;4937607;29;20042;-53
2021/11/17 02:51:07;;;;;;;23.83;13.00;;;;;;;;;;4937345;29;20371;-55
2021/11/17 02:53:36;;;;;;;28.42;14.00;;;;;;;;;;4937131;29;20107;-52
2021/11/17 02:56:17;;;;;;;25.65;14.93;;;;;;;;;;4936124;29;20023;-54
2021/11/17 02:58:43;;;;;;;22.85;14.07;;;;;;;;;;4937285;29;20035;-54
2021/11/17 03:01:28;;;;;;;24.25;14.18;;;;;;;;;;4937273;29;20502;-51
2021/11/17 03:04:03;;;;;;;26.98;14.25;;;;;;;;;;4937034;29;20431;-54
2021/11/17 03:06:56;;;;;;;25.67;14.48;;;;;;;;;;4935973;29;20028;-55
2021/11/17 03:09:25;;;;;;;26.67;15.18;;;;;;;;;;4936000;29;20091;-55
2021/11/17 03:12:03;;;;;;;25.23;14.57;;;;;;;;;;4937220;29;20043;-53
2021/11/17 03:14:29;;;;;;;25.42;14.77;;;;;;;;;;4936832;29;20038;-62
2021/11/17 03:17:01;;;;;;;29.23;15.77;;;;;;;;;;4936933;29;20099;-62
2021/11/17 03:19:38;;;;;;;28.23;14.93;;;;;;;;;;4936853;29;20062;-55
2021/11/17 03:22:04;;;;;;;27.05;15.38;;;;;;;;;;4937036;29;20074;-55
2021/11/17 03:24:39;;;;;;;27.50;15.13;;;;;;;;;;4936696;29;20063;-64
2021/11/17 03:27:32;;;;;;;30.05;15.63;;;;;;;;;;4937093;29;20039;-56
2021/11/17 03:30:06;;;;;;;25.88;15.52;;;;;;;;;;4935574;29;20047;-58
2021/11/17 03:32:51;;;;;;;27.48;16.05;;;;;;;;;;4936619;29;20028;-55
2021/11/17 03:35:17;;;;;;;26.98;15.20;;;;;;;;;;4917708;29;20047;-54
2021/11/17 03:37:49;;;;;;;25.17;15.32;;;;;;;;;;4917557;29;20024;-53
2021/11/17 03:40:31;;;;;;;23.80;14.50;;;;;;;;;;4916389;29;20047;-64
2021/11/17 03:43:03;;;;;;;24.35;14.88;;;;;;;;;;4926817;29;20507;-61
2021/11/17 03:45:35;;;;;;;28.55;15.98;;;;;;;;;;4936231;29;20040;-55
2021/11/17 03:48:04;;;;;;;27.58;15.02;;;;;;;;;;4936726;29;20160;-53
2021/11/17 03:50:45;;;;;;;27.45;16.38;;;;;;;;;;4936486;29;20515;-63
2021/11/17 03:53:18;;;;;;;23.90;15.40;;;;;;;;;;4936188;29;20024;-56
2021/11/17 03:55:59;;;;;;;24.70;15.02;;;;;;;;;;4936290;29;20085;-55
2021/11/17 03:58:34;;;;;;;24.02;14.68;;;;;;;;;;4936269;29;20068;-54
2021/11/17 04:01:16;;;;;;;27.45;15.93;;;;;;;;;;4936052;29;20337;-52
2021/11/17 04:03:42;;;;;;;27.70;15.85;;;;;;;;;;4936006;29;20535;-57
2021/11/17 04:06:10;;;;;;;27.13;15.35;;;;;;;;;;4936217;29;20107;-56
2021/11/17 04:08:49;;;;;;;26.40;15.48;;;;;;;;;;4935918;29;20063;-55
2021/11/17 04:11:27;;;;;;;29.30;16.17;;;;;;;;;;4936367;29;20035;-55
2021/11/17 04:13:59;;;;;;;25.88;14.85;;;;;;;;;;4935965;29;20501;-56
2021/11/17 04:16:34;;;;;;;27.40;15.90;;;;;;;;;;4934705;29;20076;-56
2021/11/17 04:19:06;;;;;;;29.13;16.35;;;;;;;;;;4935760;29;20407;-58
2021/11/17 04:21:51;;;;;;;28.60;16.05;;;;;;;;;;4935995;29;20019;-50
2021/11/17 04:24:23;;;;;;;28.95;15.38;;;;;;;;;;4934547;29;20407;-51
2021/11/17 04:26:52;;;;;;;23.90;14.73;;;;;;;;;;4935881;29;20039;-54
2021/11/17 04:29:21;;;;;;;24.50;14.65;;;;;;;;;;4935514;29;20391;-55
2021/11/17 04:32:05;;;;;;;26.15;15.63;;;;;;;;;;4935876;29;20027;-53
2021/11/17 04:35:07;;;;;;;21.95;14.63;;;;;;;;;;4935880;29;20059;-56
2021/11/17 04:37:58;;;;;;;22.70;14.35;;;;;;;;;;4914660;29;20070;-50
2021/11/17 04:40:40;;;;;;;27.60;15.32;;;;;;;;;;4935253;29;20099;-59
2021/11/17 04:43:09;;;;;;;22.98;14.23;;;;;;;;;;4910737;29;20043;-52
2021/11/17 04:45:44;;;;;;;26.05;14.32;;;;;;;;;;4935620;29;20047;-52
2021/11/17 04:48:10;;;;;;;24.85;15.27;;;;;;;;;;4935298;29;20089;-54
2021/11/17 04:50:36;;;;;;;22.40;14.13;;;;;;;;;;4935486;29;20028;-52
2021/11/17 04:53:05;;;;;;;25.60;15.10;;;;;;;;;;4935371;29;20023;-55
2021/11/17 04:55:43;;;;;;;24.63;15.65;;;;;;;;;;4935438;29;20067;-57
2021/11/17 04:58:24;;;;;;;26.55;15.27;;;;;;;;;;4935583;29;20079;-63
2021/11/17 05:01:06;;;;;;;24.17;14.98;;;;;;;;;;4935613;29;20087;-56
2021/11/17 05:03:41;;;;;;;22.98;14.80;;;;;;;;;;4935694;29;20067;-53
2021/11/17 05:06:07;;;;;;;24.63;15.02;;;;;;;;;;4935562;29;20034;-62
2021/11/17 05:08:48;;;;;;;27.52;16.52;;;;;;;;;;4935454;29;20031;-55
2021/11/17 05:11:24;;;;;;;30.25;15.35;;;;;;;;;;4934258;29;20066;-53
2021/11/17 05:14:05;;;;;;;26.73;15.00;;;;;;;;;;4934243;29;20428;-55
2021/11/17 05:16:46;;;;;;;26.52;16.38;;;;;;;;;;4934038;29;20051;-59
2021/11/17 05:19:31;;;;;;;28.27;15.57;;;;;;;;;;4934080;29;20035;-56
2021/11/17 05:21:57;;;;;;;28.02;15.90;;;;;;;;;;4934074;29;20039;-55
2021/11/17 05:24:23;;;;;;;29.75;15.13;;;;;;;;;;4935160;29;20040;-53
2021/11/17 05:26:49;;;;;;;27.05;14.85;;;;;;;;;;4933895;29;20040;-61
2021/11/17 05:29:18;;;;;;;29.48;14.98;;;;;;;;;;4935291;29;20133;-56
2021/11/17 05:31:53;;;;;;;31.75;15.20;;;;;;;;;;4933885;29;20523;-57
2021/11/17 05:34:22;;;;;;;32.10;15.88;;;;;;;;;;4934916;29;20491;-56
2021/11/17 05:36:48;;;;;;;31.05;16.20;;;;;;;;;;4935319;29;20024;-63
2021/11/17 05:39:24;;;;;;;31.45;15.52;;;;;;;;;;4935062;29;20038;-55
2021/11/17 05:42:07;;;;;;;29.10;15.05;;;;;;;;;;4933852;29;20042;-59
2021/11/17 05:44:52;;;;;;;27.95;15.57;;;;;;;;;;4934156;29;20039;-53
2021/11/17 05:47:33;;;;;;;26.83;15.60;;;;;;;;;;4935141;29;20123;-57
2021/11/17 05:50:07;;;;;;;27.05;14.77;;;;;;;;;;4935293;29;20031;-53
2021/11/17 05:52:51;;;;;;;30.40;16.38;;;;;;;;;;4934947;29;20546;-56
2021/11/17 05:55:17;;;;;;;24.70;15.48;;;;;;;;;;4934918;29;20027;-57
2021/11/17 05:58:01;;;;;;;26.00;14.48;;;;;;;;;;4933617;29;20387;-56
2021/11/17 06:00:27;;;;;;;24.13;14.75;;;;;;;;;;4936395;29;20074;-56
2021/11/17 06:03:12;;;;;;;22.95;14.73;;;;;;;;;;4938212;29;20035;-56
2021/11/17 06:05:38;;;;;;;27.77;15.25;;;;;;;;;;4937790;28;20095;-60
2021/11/17 06:08:04;;;;;;;26.65;14.80;;;;;;;;;;4941545;28;20054;-60
2021/11/17 06:10:32;;;;;;;30.38;15.27;;;;;;;;;;4927382;29;20028;-59
2021/11/17 06:12:58;;;;;;;28.23;13.93;;;;;;;;;;4932677;29;20028;-63
2021/11/17 06:15:24;;;;;;;29.58;15.27;;;;;;;;;;4921919;29;20032;-66
2021/11/17 06:17:52;;;;;;;28.23;15.93;;;;;;;;;;4920581;29;20032;-63
2021/11/17 06:20:18;;;;;;;31.38;16.15;;;;;;;;;;4938097;29;20028;-63
2021/11/17 06:22:50;;;;;;;34.45;15.75;;;;;;;;;;4937881;29;20122;-64
2021/11/17 06:25:17;;;;;;;42.80;16.42;;;;;;;;;;4938024;29;20059;-69
2021/11/17 06:27:44;;;;;;;43.75;16.58;;;;;;;;;;4925552;29;20038;-61
2021/11/17 06:30:12;;;;;;;43.17;15.85;;;;;;;;;;4918889;29;20091;-61
2021/11/17 06:32:38;;;;;;;31.13;16.40;;;;;;;;;;4922249;29;20473;-60
2021/11/17 06:35:04;;;;;;;36.33;15.70;;;;;;;;;;4918541;29;20454;-62
2021/11/17 06:37:30;;;;;;;34.00;17.02;;;;;;;;;;4931690;29;20478;-62
2021/11/17 06:39:58;;;;;;;31.45;16.98;;;;;;;;;;4934064;29;20103;-63
2021/11/17 06:42:33;;;;;;;45.75;16.98;;;;;;;;;;4928690;29;20043;-60
2021/11/17 06:44:59;;;;;;;41.85;18.45;;;;;;;;;;4932030;29;20070;-62
2021/11/17 06:47:26;;;;;;;43.72;18.77;;;;;;;;;;4936031;29;20023;-61
2021/11/17 06:49:53;;;;;;;34.45;18.50;;;;;;;;;;4937279;28;20066;-62
2021/11/17 06:52:20;;;;;;;39.22;18.00;;;;;;;;;;4937799;29;20031;-60
2021/11/17 06:54:46;;;;;;;46.42;17.58;;;;;;;;;;4937358;29;20095;-66
2021/11/17 06:57:12;;;;;;;34.88;17.17;;;;;;;;;;4937123;29;20047;-60
2021/11/17 06:59:38;;;;;;;33.95;17.52;;;;;;;;;;4937235;29;20035;-60
2021/11/17 07:02:05;;;;;;;43.08;17.45;;;;;;;;;;4937112;29;20119;-62
2021/11/17 07:04:34;;;;;;;56.40;19.70;;;;;;;;;;4937103;29;20115;-62
2021/11/17 07:07:01;;;;;;;34.80;19.05;;;;;;;;;;4936905;29;20460;-61
2021/11/17 07:09:27;;;;;;;39.42;18.52;;;;;;;;;;4936469;29;20062;-64
2021/11/17 07:11:53;;;;;;;34.38;18.15;;;;;;;;;;4936537;29;20067;-61
2021/11/17 07:14:22;;;;;;;39.72;19.63;;;;;;;;;;4937048;29;20110;-63
2021/11/17 07:16:48;;;;;;;40.30;19.65;;;;;;;;;;4936915;29;20071;-62
2021/11/17 07:19:14;;;;;;;39.70;19.83;;;;;;;;;;4936746;29;20048;-62
2021/11/17 07:21:41;;;;;;;37.10;20.42;;;;;;;;;;4935547;29;20042;-62
2021/11/17 07:24:08;;;;;;;35.35;19.38;;;;;;;;;;4936871;29;20044;-62
2021/11/17 07:26:34;;;;;;;34.25;18.77;;;;;;;;;;4936744;29;20102;-62
2021/11/17 07:29:00;;;;;;;37.22;19.10;;;;;;;;;;4936650;29;20039;-64
2021/11/17 07:31:26;;;;;;;35.55;18.38;;;;;;;;;;4936453;29;20031;-66
2021/11/17 07:33:52;;;;;;;34.42;18.55;;;;;;;;;;4936552;29;20032;-64
2021/11/17 07:36:20;;;;;;;32.90;18.52;;;;;;;;;;4936110;29;20036;-64
2021/11/17 07:38:46;;;;;;;32.55;18.13;;;;;;;;;;4936379;29;20176;-63
2021/11/17 07:41:13;;;;;;;30.10;17.70;;;;;;;;;;4936113;29;20125;-62
2021/11/17 07:43:39;;;;;;;34.58;17.88;;;;;;;;;;4935874;29;20373;-62
2021/11/17 07:46:05;;;;;;;32.63;18.15;;;;;;;;;;4935494;29;20058;-62
2021/11/17 07:48:31;;;;;;;30.85;17.92;;;;;;;;;;4936000;29;20020;-62
2021/11/17 07:50:58;;;;;;;31.05;17.20;;;;;;;;;;4935676;29;20526;-62
2021/11/17 07:53:25;;;;;;;33.88;18.42;;;;;;;;;;4935693;29;20038;-65
2021/11/17 07:55:52;;;;;;;32.30;18.13;;;;;;;;;;4936040;29;20103;-62
2021/11/17 07:58:19;;;;;;;29.95;17.20;;;;;;;;;;4935805;29;20468;-63
2021/11/17 08:00:48;;;;;;;29.48;16.98;;;;;;;;;;4935661;29;20467;-62
2021/11/17 08:03:14;;;;;;;30.38;17.45;;;;;;;;;;4935621;29;20068;-64
2021/11/17 08:05:40;;;;;;;29.60;17.35;;;;;;;;;;4935533;29;20360;-63
2021/11/17 08:08:06;;;;;;;31.17;17.15;;;;;;;;;;4935523;29;20040;-62
2021/11/17 08:10:33;;;;;;;29.27;16.27;;;;;;;;;;4934342;29;20055;-62
2021/11/17 08:13:00;;;;;;;29.30;17.25;;;;;;;;;;4935773;29;20367;-64
2021/11/17 08:15:26;;;;;;;32.58;17.33;;;;;;;;;;4935433;29;20035;-64
2021/11/17 08:17:52;;;;;;;28.70;16.75;;;;;;;;;;4935853;29;20359;-65
2021/11/17 08:20:19;;;;;;;29.02;16.95;;;;;;;;;;4935418;29;20024;-65
2021/11/17 08:22:47;;;;;;;36.08;17.73;;;;;;;;;;4933303;29;20036;-63
2021/11/17 08:25:14;;;;;;;31.50;17.08;;;;;;;;;;4934148;29;20039;-63
2021/11/17 08:27:39;;;;;;;31.55;17.08;;;;;;;;;;4935299;29;20464;-64
2021/11/17 08:30:09;;;;;;;33.08;16.77;;;;;;;;;;4934121;29;20039;-63
2021/11/17 08:32:35;;;;;;;29.60;17.27;;;;;;;;;;4935295;29;20565;-62
2021/11/17 08:35:01;;;;;;;32.33;17.65;;;;;;;;;;4935415;29;20447;-63
2021/11/17 08:37:30;;;;;;;33.35;18.65;;;;;;;;;;4935517;29;20032;-64
2021/11/17 08:39:56;;;;;;;33.58;17.77;;;;;;;;;;4935321;29;20028;-63
2021/11/17 08:42:22;;;;;;;40.65;19.13;;;;;;;;;;4935037;29;20059;-64
2021/11/17 08:44:48;;;;;;;33.70;19.38;;;;;;;;;;4934819;29;20431;-63
2021/11/17 08:47:16;;;;;;;37.13;18.88;;;;;;;;;;4935364;29;20130;-66
2021/11/17 08:49:43;;;;;;;37.90;20.58;;;;;;;;;;4935272;29;20115;-64
2021/11/17 08:52:09;;;;;;;41.53;20.48;;;;;;;;;;4934335;29;20079;-71
2021/11/17 08:54:36;;;;;;;39.80;20.40;;;;;;;;;;4935777;29;20063;-70
2021/11/17 08:57:02;;;;;;;41.17;21.58;;;;;;;;;;4934177;29;20027;-68
2021/11/17 08:59:33;;;;;;;38.55;20.48;;;;;;;;;;4935668;29;20119;-71
2021/11/17 09:02:03;;;;;;;42.10;20.98;;;;;;;;;;4935384;29;20518;-72
2021/11/17 09:04:29;;;;;;;43.83;20.05;;;;;;;;;;4935936;29;20032;-67
2021/11/17 09:06:56;;;;;;;39.45;21.85;;;;;;;;;;4935480;29;20028;-70
2021/11/17 09:09:22;;;;;;;39.70;20.38;;;;;;;;;;4935087;29;20024;-71
2021/11/17 09:11:48;;;;;;;38.60;20.60;;;;;;;;;;4935073;29;20034;-69
2021/11/17 09:14:14;;;;;;;40.13;19.08;;;;;;;;;;4935448;29;20060;-68
2021/11/17 09:16:41;;;;;;;41.97;19.80;;;;;;;;;;4935229;29;20031;-68
2021/11/17 09:19:07;;;;;;;39.20;18.48;;;;;;;;;;4934936;29;20384;-69
2021/11/17 09:21:35;;;;;;;36.92;17.60;;;;;;;;;;4935145;29;20031;-69
2021/11/17 09:24:05;;;;;;;32.13;16.83;;;;;;;;;;4935009;29;20075;-67
2021/11/17 09:26:32;;;;;;;34.47;16.20;;;;;;;;;;4935032;29;20023;-70
2021/11/17 09:28:58;;;;;;;31.10;15.45;;;;;;;;;;4935179;29;20122;-70
2021/11/17 09:31:25;;;;;;;33.55;12.40;;;;;;;;;;4934366;29;20028;-68
2021/11/17 09:33:51;;;;;;;30.95;13.00;;;;;;;;;;4935797;29;20027;-70
2021/11/17 09:36:18;;;;;;;32.53;11.60;;;;;;;;;;4939234;29;20122;-70
2021/11/17 09:38:49;;;;;;;26.35;11.15;;;;;;;;;;4938934;29;20032;-71
2021/11/17 09:41:16;;;;;;;26.65;11.23;;;;;;;;;;4939178;29;20038;-69
2021/11/17 09:43:44;;;;;;;24.45;10.48;;;;;;;;;;4938758;29;20043;-69
2021/11/17 09:46:11;;;;;;;24.40;9.85;;;;;;;;;;4937061;29;20051;-69
2021/11/17 09:48:40;;;;;;;26.02;10.18;;;;;;;;;;4938748;29;20038;-67
2021/11/17 09:51:15;;;;;;;19.38;9.05;;;;;;;;;;4938596;29;20059;-69
2021/11/17 09:53:44;;;;;;;22.77;9.40;;;;;;;;;;4938413;29;20027;-67
2021/11/17 09:56:29;;;;;;;24.77;9.13;;;;;;;;;;4937017;29;20130;-70
2021/11/17 09:58:58;;;;;;;22.13;7.88;;;;;;;;;;4936938;29;20032;-69
2021/11/17 10:01:35;;;;;;;22.27;7.03;;;;;;;;;;4936685;29;20023;-69
2021/11/17 10:04:05;;;;;;;30.08;7.82;;;;;;;;;;4936860;29;20381;-69
2021/11/17 10:15:41;;;;;;;22.55;5.45;;;;;;;;;;5110131;27;20388;-75
2021/11/17 10:18:18;;;;;;;21.80;5.30;;;;;;;;;;5092674;28;20485;-75
2021/11/17 10:20:44;;;;;;;15.23;4.93;;;;;;;;;;5111362;28;20016;-74
2021/11/17 10:23:21;;;;;;;25.67;4.57;;;;;;;;;;5092915;28;20048;-76
2021/11/17 10:25:55;;;;;;;16.27;4.57;;;;;;;;;;5112110;28;20024;-76
2021/11/17 10:28:23;;;;;;;16.75;4.35;;;;;;;;;;5111038;28;20020;-77
2021/11/17 10:30:52;;;;;;;13.82;3.75;;;;;;;;;;5111190;28;20040;-71
2021/11/17 10:33:20;;;;;;;12.57;3.53;;;;;;;;;;5111320;28;20382;-77
2021/11/17 10:36:05;;;;;;;13.90;3.60;;;;;;;;;;5110917;28;20028;-76
2021/11/17 10:38:38;;;;;;;17.98;4.07;;;;;;;;;;5092701;28;20028;-77
2021/11/17 10:41:15;;;;;;;12.13;3.88;;;;;;;;;;5111056;28;20026;-75
2021/11/17 10:43:53;;;;;;;17.80;3.83;;;;;;;;;;5110731;28;20028;-74
2021/11/17 10:46:21;;;;;;;10.98;3.20;;;;;;;;;;5092644;28;20555;-76
2021/11/17 10:48:55;;;;;;;12.73;3.17;;;;;;;;;;5092489;28;20489;-76
2021/11/17 10:51:24;;;;;;;9.60;3.08;;;;;;;;;;5110643;28;20054;-77
2021/11/17 10:53:51;;;;;;;17.40;3.78;;;;;;;;;;5110965;28;20028;-76
2021/11/17 10:56:18;;;;;;;17.17;3.47;;;;;;;;;;5092750;28;20406;-76
2021/11/17 10:58:47;;;;;;;9.77;3.03;;;;;;;;;;5110834;28;20059;-75
2021/11/17 11:01:16;;;;;;;11.52;3.25;;;;;;;;;;5110223;28;20898;-76
2021/11/17 11:03:44;;;;;;;11.38;2.85;;;;;;;;;;5093169;28;20535;-77
2021/11/17 11:06:19;;;;;;;14.75;3.45;;;;;;;;;;5110427;28;20402;-76
2021/11/17 11:08:58;;;;;;;10.50;2.83;;;;;;;;;;5109427;28;20498;-75
2021/11/17 11:11:24;;;;;;;11.77;3.38;;;;;;;;;;5110403;28;20024;-74
2021/11/17 11:13:53;;;;;;;11.13;3.08;;;;;;;;;;5109444;28;20398;-72
2021/11/17 11:16:30;;;;;;;12.55;3.00;;;;;;;;;;5109692;28;20024;-74
2021/11/17 11:19:11;;;;;;;10.43;2.63;;;;;;;;;;5109767;28;20051;-72
2021/11/17 11:21:43;;;;;;;13.98;2.72;;;;;;;;;;5109641;28;20032;-72
2021/11/17 11:24:12;;;;;;;16.50;3.20;;;;;;;;;;5109899;28;20024;-77
2021/11/17 11:27:04;;;;;;;10.60;3.05;;;;;;;;;;5098625;28;20035;-77
2021/11/17 11:29:34;;;;;;;12.25;3.05;;;;;;;;;;5072890;28;20379;-76
2021/11/17 11:32:02;;;;;;;14.35;3.17;;;;;;;;;;5096564;28;20383;-76
2021/11/17 11:34:30;;;;;;;18.27;3.05;;;;;;;;;;5096279;28;20042;-76
2021/11/17 11:36:56;;;;;;;15.35;3.15;;;;;;;;;;5078334;28;20024;-77
2021/11/17 11:39:22;;;;;;;12.95;2.83;;;;;;;;;;5096245;28;20081;-74
2021/11/17 11:42:07;;;;;;;14.40;3.60;;;;;;;;;;5095898;28;20833;-77
2021/11/17 11:44:45;;;;;;;16.90;2.90;;;;;;;;;;5095735;28;20158;-75
2021/11/17 11:47:11;;;;;;;17.17;3.15;;;;;;;;;;5077515;28;20435;-76
2021/11/17 11:50:09;;;;;;;13.18;2.83;;;;;;;;;;5095503;28;20036;-75
2021/11/17 11:52:37;;;;;;;15.73;3.05;;;;;;;;;;5061706;28;20040;-75
2021/11/17 11:55:05;;;;;;;9.55;2.50;;;;;;;;;;5080736;28;20060;-73
2021/11/17 11:57:34;;;;;;;12.63;3.10;;;;;;;;;;5057176;28;20036;-75
2021/11/17 12:00:05;;;;;;;12.30;2.67;;;;;;;;;;5075012;28;20025;-75
2021/11/17 12:02:37;;;;;;;12.98;3.13;;;;;;;;;;5075021;28;20024;-75
2021/11/17 12:05:05;;;;;;;12.48;3.08;;;;;;;;;;5056942;28;20028;-74
2021/11/17 12:07:45;;;;;;;16.83;3.08;;;;;;;;;;5074916;28;20028;-75
2021/11/17 12:10:29;;;;;;;16.00;2.72;;;;;;;;;;5075010;28;20048;-76
2021/11/17 12:12:55;;;;;;;13.43;2.75;;;;;;;;;;5056743;28;20348;-76
2021/11/17 12:15:23;;;;;;;18.88;3.33;;;;;;;;;;5056532;28;20407;-75
2021/11/17 12:18:02;;;;;;;11.85;2.88;;;;;;;;;;5056882;28;20028;-75
2021/11/17 12:20:33;;;;;;;14.77;2.70;;;;;;;;;;5074825;28;20024;-75
2021/11/17 12:22:59;;;;;;;10.23;2.78;;;;;;;;;;5056682;28;20016;-75
2021/11/17 12:25:36;;;;;;;13.90;3.13;;;;;;;;;;5056495;28;20127;-74
2021/11/17 12:28:07;;;;;;;19.27;3.65;;;;;;;;;;5074569;28;20024;-76
2021/11/17 12:30:40;;;;;;;13.50;2.63;;;;;;;;;;5056389;28;20102;-75
2021/11/17 12:33:24;;;;;;;15.90;3.05;;;;;;;;;;5056258;28;20035;-76
2021/11/17 12:36:19;;;;;;;10.80;2.78;;;;;;;;;;5074310;28;20032;-76
2021/11/17 12:38:46;;;;;;;13.50;3.00;;;;;;;;;;5068471;28;20399;-76
2021/11/17 12:41:34;;;;;;;13.70;2.63;;;;;;;;;;5056661;28;20399;-75
2021/11/17 12:44:03;;;;;;;9.25;2.28;;;;;;;;;;5074148;28;20109;-76
2021/11/17 12:46:46;;;;;;;13.73;2.80;;;;;;;;;;5074400;28;20033;-72
2021/11/17 12:49:13;;;;;;;15.30;3.30;;;;;;;;;;5074018;28;20035;-76
2021/11/17 12:51:47;;;;;;;14.63;3.03;;;;;;;;;;5073866;28;20046;-75
2021/11/17 12:54:16;;;;;;;14.85;2.88;;;;;;;;;;5056256;28;20068;-75
2021/11/17 12:57:05;;;;;;;14.40;2.88;;;;;;;;;;5073973;28;20059;-76
2021/11/17 12:59:41;;;;;;;14.60;3.33;;;;;;;;;;5070659;28;20046;-76
2021/11/17 13:02:22;;;;;;;16.15;3.20;;;;;;;;;;5074204;28;20020;-74
2021/11/17 13:04:50;;;;;;;14.57;2.70;;;;;;;;;;5073722;28;20024;-73
2021/11/17 13:07:30;;;;;;;11.32;3.10;;;;;;;;;;5055694;28;20032;-75
2021/11/17 13:10:01;;;;;;;12.77;2.70;;;;;;;;;;5073640;28;20544;-76
2021/11/17 13:12:35;;;;;;;10.98;2.75;;;;;;;;;;5073835;28;20118;-75
2021/11/17 13:15:04;;;;;;;9.77;3.00;;;;;;;;;;5073146;28;20051;-75
2021/11/17 13:17:33;;;;;;;10.82;2.50;;;;;;;;;;5073456;28;20102;-76
2021/11/17 13:20:14;;;;;;;13.05;2.80;;;;;;;;;;5073448;28;20432;-75
2021/11/17 13:22:45;;;;;;;12.98;2.92;;;;;;;;;;5055468;28;20384;-76
2021/11/17 13:25:11;;;;;;;12.98;2.90;;;;;;;;;;5073393;28;20032;-77
2021/11/17 13:27:39;;;;;;;10.75;2.60;;;;;;;;;;5073137;28;20025;-74
2021/11/17 13:30:24;;;;;;;16.27;2.80;;;;;;;;;;5073280;28;20099;-75
2021/11/17 13:32:51;;;;;;;13.65;2.83;;;;;;;;;;5073287;28;20024;-75
2021/11/17 13:35:23;;;;;;;11.63;2.55;;;;;;;;;;5073498;28;20060;-76
2021/11/17 13:37:49;;;;;;;9.88;2.60;;;;;;;;;;5073259;28;20029;-76
2021/11/17 13:40:20;;;;;;;12.82;2.78;;;;;;;;;;5072431;28;20036;-75
2021/11/17 13:42:46;;;;;;;9.75;2.60;;;;;;;;;;5045802;28;20021;-75
2021/11/17 13:45:14;;;;;;;7.45;2.22;;;;;;;;;;5035147;28;20025;-72
2021/11/17 13:47:40;;;;;;;13.98;2.70;;;;;;;;;;5035014;28;20056;-74
2021/11/17 13:50:08;;;;;;;14.20;2.90;;;;;;;;;;5052723;28;20079;-75
2021/11/17 13:52:36;;;;;;;12.18;3.22;;;;;;;;;;5053007;28;20051;-77
2021/11/17 13:55:04;;;;;;;8.55;2.40;;;;;;;;;;5069875;28;20448;-75
2021/11/17 13:57:30;;;;;;;12.50;2.70;;;;;;;;;;5072715;28;20028;-73
2021/11/17 13:59:56;;;;;;;10.05;2.45;;;;;;;;;;5072768;28;20024;-75
2021/11/17 14:02:23;;;;;;;8.65;2.33;;;;;;;;;;5073095;28;20052;-75
2021/11/17 14:04:49;;;;;;;10.70;2.67;;;;;;;;;;5072588;28;20031;-74
2021/11/17 14:07:17;;;;;;;17.98;3.13;;;;;;;;;;5054680;28;20021;-75
2021/11/17 14:09:43;;;;;;;13.85;2.63;;;;;;;;;;5072842;28;20040;-74
2021/11/17 14:12:10;;;;;;;11.95;2.40;;;;;;;;;;5072704;28;20032;-75
2021/11/17 14:14:36;;;;;;;9.95;2.60;;;;;;;;;;5054447;28;20045;-74
2021/11/17 14:17:03;;;;;;;13.50;2.85;;;;;;;;;;5072663;28;20021;-75
2021/11/17 14:19:28;;;;;;;9.85;2.70;;;;;;;;;;5072472;28;20425;-73
2021/11/17 14:21:54;;;;;;;9.38;2.35;;;;;;;;;;5072567;28;20455;-75
2021/11/17 14:24:20;;;;;;;15.95;3.25;;;;;;;;;;5072830;28;20068;-75
2021/11/17 14:26:48;;;;;;;15.20;2.85;;;;;;;;;;5072624;28;20103;-75
2021/11/17 14:29:15;;;;;;;14.18;3.25;;;;;;;;;;5072452;28;20043;-74
2021/11/17 14:31:47;;;;;;;10.30;2.22;;;;;;;;;;5054634;28;20060;-75
2021/11/17 14:34:13;;;;;;;13.15;2.67;;;;;;;;;;5072499;28;20039;-76
2021/11/17 14:36:46;;;;;;;11.93;2.35;;;;;;;;;;5072750;28;20024;-76
2021/11/17 14:39:13;;;;;;;14.75;3.13;;;;;;;;;;5073040;28;20036;-75
2021/11/17 14:41:39;;;;;;;6.85;2.17;;;;;;;;;;5072980;28;20020;-75
2021/11/17 14:44:05;;;;;;;13.55;2.78;;;;;;;;;;5054368;28;20028;-75
2021/11/17 14:46:32;;;;;;;11.38;2.60;;;;;;;;;;5072370;28;20117;-75
2021/11/17 14:48:58;;;;;;;11.25;2.22;;;;;;;;;;5072347;28;20111;-75
2021/11/17 14:51:24;;;;;;;11.60;2.63;;;;;;;;;;5072351;28;20464;-75
2021/11/17 14:53:52;;;;;;;12.80;2.53;;;;;;;;;;5072427;28;20029;-76
2021/11/17 14:56:18;;;;;;;14.52;3.03;;;;;;;;;;5072356;28;20020;-76
2021/11/17 14:58:45;;;;;;;10.50;2.50;;;;;;;;;;5072170;28;20529;-73
2021/11/17 15:01:15;;;;;;;16.48;3.13;;;;;;;;;;5073838;28;20081;-75
2021/11/17 15:03:41;;;;;;;7.15;1.98;;;;;;;;;;5058654;28;20137;-75
2021/11/17 15:06:07;;;;;;;10.98;2.40;;;;;;;;;;5075700;28;20104;-74
2021/11/17 15:08:33;;;;;;;10.25;2.38;;;;;;;;;;5076221;28;20060;-74
2021/11/17 15:10:59;;;;;;;13.82;2.65;;;;;;;;;;5075741;28;20036;-75
2021/11/17 15:13:25;;;;;;;11.00;2.40;;;;;;;;;;5075794;28;20025;-75
2021/11/17 15:15:55;;;;;;;12.52;2.08;;;;;;;;;;5075753;28;20032;-75
2021/11/17 15:18:22;;;;;;;9.30;2.58;;;;;;;;;;5076043;28;20020;-76
2021/11/17 15:20:48;;;;;;;10.27;2.15;;;;;;;;;;5075753;28;20031;-75
2021/11/17 15:23:14;;;;;;;10.93;2.17;;;;;;;;;;5058057;28;20486;-75
2021/11/17 15:25:42;;;;;;;14.35;2.35;;;;;;;;;;5075693;28;20038;-75
2021/11/17 15:28:09;;;;;;;11.00;2.40;;;;;;;;;;5075558;28;20024;-76
2021/11/17 15:30:41;;;;;;;12.88;2.78;;;;;;;;;;5075461;28;20127;-75
2021/11/17 15:33:07;;;;;;;9.23;2.30;;;;;;;;;;5075509;28;20052;-75
2021/11/17 15:35:34;;;;;;;10.32;2.10;;;;;;;;;;5075125;28;20115;-76
2021/11/17 15:38:01;;;;;;;12.95;2.42;;;;;;;;;;5075368;28;20024;-75
2021/11/17 15:40:29;;;;;;;9.90;2.17;;;;;;;;;;5075446;28;20383;-75
2021/11/17 15:42:55;;;;;;;10.43;2.15;;;;;;;;;;5075237;28;20460;-75
2021/11/17 15:45:22;;;;;;;9.20;2.33;;;;;;;;;;5075237;28;20025;-73
2021/11/17 15:47:48;;;;;;;14.90;3.15;;;;;;;;;;5057557;28;20036;-75
2021/11/17 15:50:16;;;;;;;12.38;2.25;;;;;;;;;;5075521;28;20024;-75
2021/11/17 15:52:42;;;;;;;12.20;2.28;;;;;;;;;;5075068;28;20073;-75
2021/11/17 15:55:08;;;;;;;8.07;2.20;;;;;;;;;;5075255;28;20040;-74
2021/11/17 15:57:35;;;;;;;8.52;2.50;;;;;;;;;;5075747;28;20020;-76
2021/11/17 16:00:01;;;;;;;7.50;2.05;;;;;;;;;;5075419;28;20491;-76
2021/11/17 16:02:27;;;;;;;9.30;2.13;;;;;;;;;;5075437;28;20068;-76
2021/11/17 16:04:53;;;;;;;16.67;1.67;;;;;;;;;;5075481;28;20033;-75
2021/11/17 16:07:19;;;;;;;11.95;2.40;;;;;;;;;;5075371;28;20031;-75
2021/11/17 16:09:49;;;;;;;9.95;2.53;;;;;;;;;;5075335;28;20025;-75
2021/11/17 16:12:16;;;;;;;10.23;2.17;;;;;;;;;;5075659;28;20013;-75
2021/11/17 16:14:42;;;;;;;9.18;1.98;;;;;;;;;;5074962;28;20084;-76
2021/11/17 16:17:08;;;;;;;8.52;1.95;;;;;;;;;;5074921;28;20099;-75
2021/11/17 16:19:40;;;;;;;8.05;1.70;;;;;;;;;;5075330;28;20029;-75
2021/11/17 16:22:22;;;;;;;9.25;1.73;;;;;;;;;;5075024;28;20017;-75
2021/11/17 16:27:41;;;;;;;13.23;2.15;;;;;;;;;;5077912;28;20074;-80
2021/11/17 16:30:11;;;;;;;11.57;2.13;;;;;;;;;;5078249;28;20028;-80
2021/11/17 16:32:37;;;;;;;9.98;2.00;;;;;;;;;;5078196;28;20013;-79
2021/11/17 16:35:03;;;;;;;9.57;2.40;;;;;;;;;;5077671;28;20530;-80
2021/11/17 16:37:29;;;;;;;7.28;1.92;;;;;;;;;;5070131;28;20112;-78
2021/11/17 16:39:55;;;;;;;8.73;1.90;;;;;;;;;;5057458;28;20099;-79
2021/11/17 16:42:23;;;;;;;8.25;1.98;;;;;;;;;;5057005;28;20018;-79
2021/11/17 16:44:49;;;;;;;8.30;2.08;;;;;;;;;;5056487;28;20020;-77
2021/11/17 16:47:15;;;;;;;6.65;1.98;;;;;;;;;;5056424;28;20491;-78
2021/11/17 16:49:43;;;;;;;9.85;1.85;;;;;;;;;;5056373;28;20484;-78
2021/11/17 16:52:23;;;;;;;5.43;1.90;;;;;;;;;;5038550;28;20062;-79
2021/11/17 16:54:55;;;;;;;8.45;1.85;;;;;;;;;;5056851;28;20040;-68
2021/11/17 16:57:22;;;;;;;11.85;2.38;;;;;;;;;;5055581;28;20025;-78
2021/11/17 16:59:48;;;;;;;11.05;1.88;;;;;;;;;;5056441;28;20033;-75
2021/11/17 17:02:14;;;;;;;7.75;1.88;;;;;;;;;;5056247;28;20380;-78
2021/11/17 17:04:41;;;;;;;7.60;1.67;;;;;;;;;;5056796;28;20029;-78
2021/11/17 17:07:08;;;;;;;7.78;1.80;;;;;;;;;;5056642;28;20017;-78
2021/11/17 17:09:35;;;;;;;10.05;2.38;;;;;;;;;;5056431;28;20051;-78
2021/11/17 17:12:01;;;;;;;7.32;1.60;;;;;;;;;;5056038;28;20448;-74
2021/11/17 17:14:27;;;;;;;13.77;2.38;;;;;;;;;;5055984;28;20080;-77
2021/11/17 17:16:53;;;;;;;5.40;1.75;;;;;;;;;;5056161;28;20039;-82
2021/11/17 17:19:19;;;;;;;7.13;1.42;;;;;;;;;;5054026;28;20099;-64
2021/11/17 17:21:45;;;;;;;5.10;1.90;;;;;;;;;;5053561;28;20072;-67